sensor_id;sensor_type;location;lat;lon;timestamp;P1;durP1;ratioP1;P2;durP2;ratioP2
50769;SDS011;36740;48.698;11.472;2023-03-23T00:02:28;6.07;;;3.20;;
50769;SDS011;36740;48.698;11.472;2023-03-23T00:05:14;5.80;;;4.00;;
50769;SDS011;36740;48.698;11.472;2023-03-23T00:08:00;7.30;;;4.65;;
50769;SDS011;36740;48.698;11.472;2023-03-23T00:10:48;16.23;;;4.57;;
50769;SDS011;36740;48.698;11.472;2023-03-23T00:13:33;7.05;;;4.60;;
50769;SDS011;36740;48.698;11.472;2023-03-23T00:16:20;11.70;;;7.50;;
50769;SDS011;36740;48.698;11.472;2023-03-23T00:19:10;12.18;;;6.13;;
50769;SDS011;36740;48.698;11.472;2023-03-23T00:21:58;12.48;;;8.07;;
50769;SDS011;36740;48.698;11.472;2023-03-23T00:24:46;14.10;;;8.02;;
50769;SDS011;36740;48.698;11.472;2023-03-23T00:27:32;12.43;;;5.80;;
50769;SDS011;36740;48.698;11.472;2023-03-23T00:30:18;6.18;;;3.70;;
50769;SDS011;36740;48.698;11.472;2023-03-23T00:33:04;9.55;;;5.90;;
50769;SDS011;36740;48.698;11.472;2023-03-23T00:35:50;10.23;;;4.80;;
50769;SDS011;36740;48.698;11.472;2023-03-23T00:38:38;9.35;;;5.90;;
50769;SDS011;36740;48.698;11.472;2023-03-23T00:41:24;8.00;;;3.97;;
50769;SDS011;36740;48.698;11.472;2023-03-23T00:44:12;9.48;;;5.68;;
50769;SDS011;36740;48.698;11.472;2023-03-23T00:47:02;10.70;;;5.47;;
50769;SDS011;36740;48.698;11.472;2023-03-23T00:49:48;8.75;;;5.00;;
50769;SDS011;36740;48.698;11.472;2023-03-23T00:52:35;6.65;;;4.38;;
50769;SDS011;36740;48.698;11.472;2023-03-23T00:55:21;9.02;;;5.55;;
50769;SDS011;36740;48.698;11.472;2023-03-23T00:58:06;7.32;;;4.65;;
50769;SDS011;36740;48.698;11.472;2023-03-23T01:00:52;5.72;;;4.05;;
50769;SDS011;36740;48.698;11.472;2023-03-23T01:03:37;8.68;;;4.68;;
50769;SDS011;36740;48.698;11.472;2023-03-23T01:06:23;13.77;;;5.20;;
50769;SDS011;36740;48.698;11.472;2023-03-23T01:09:10;11.40;;;5.63;;
50769;SDS011;36740;48.698;11.472;2023-03-23T01:11:56;8.82;;;4.50;;
50769;SDS011;36740;48.698;11.472;2023-03-23T01:14:42;10.43;;;5.75;;
50769;SDS011;36740;48.698;11.472;2023-03-23T01:17:27;10.30;;;5.90;;
50769;SDS011;36740;48.698;11.472;2023-03-23T01:20:14;5.28;;;3.75;;
50769;SDS011;36740;48.698;11.472;2023-03-23T01:23:00;9.80;;;5.03;;
50769;SDS011;36740;48.698;11.472;2023-03-23T01:25:45;9.25;;;5.18;;
50769;SDS011;36740;48.698;11.472;2023-03-23T01:28:31;5.80;;;4.10;;
50769;SDS011;36740;48.698;11.472;2023-03-23T01:31:20;7.40;;;4.15;;
50769;SDS011;36740;48.698;11.472;2023-03-23T01:34:06;9.00;;;4.22;;
50769;SDS011;36740;48.698;11.472;2023-03-23T01:36:52;8.93;;;6.10;;
50769;SDS011;36740;48.698;11.472;2023-03-23T01:39:37;10.25;;;4.93;;
50769;SDS011;36740;48.698;11.472;2023-03-23T01:42:24;6.20;;;3.92;;
50769;SDS011;36740;48.698;11.472;2023-03-23T01:48:07;6.78;;;5.03;;
50769;SDS011;36740;48.698;11.472;2023-03-23T01:50:58;6.63;;;4.97;;
50769;SDS011;36740;48.698;11.472;2023-03-23T01:53:46;8.60;;;4.85;;
50769;SDS011;36740;48.698;11.472;2023-03-23T01:56:33;6.63;;;4.20;;
50769;SDS011;36740;48.698;11.472;2023-03-23T01:59:23;8.18;;;5.65;;
50769;SDS011;36740;48.698;11.472;2023-03-23T02:02:09;10.32;;;4.43;;
50769;SDS011;36740;48.698;11.472;2023-03-23T02:04:57;6.95;;;4.68;;
50769;SDS011;36740;48.698;11.472;2023-03-23T02:07:44;12.27;;;4.47;;
50769;SDS011;36740;48.698;11.472;2023-03-23T02:10:31;7.65;;;4.13;;
50769;SDS011;36740;48.698;11.472;2023-03-23T02:13:17;6.78;;;4.15;;
50769;SDS011;36740;48.698;11.472;2023-03-23T02:16:04;6.22;;;4.25;;
50769;SDS011;36740;48.698;11.472;2023-03-23T02:30:39;5.65;;;3.42;;
50769;SDS011;36740;48.698;11.472;2023-03-23T02:33:46;9.90;;;4.55;;
50769;SDS011;36740;48.698;11.472;2023-03-23T02:39:29;3.78;;;2.95;;
50769;SDS011;36740;48.698;11.472;2023-03-23T02:42:17;7.03;;;4.53;;
50769;SDS011;36740;48.698;11.472;2023-03-23T02:45:04;7.25;;;4.57;;
50769;SDS011;36740;48.698;11.472;2023-03-23T02:47:51;6.60;;;3.58;;
50769;SDS011;36740;48.698;11.472;2023-03-23T02:50:37;6.38;;;3.78;;
50769;SDS011;36740;48.698;11.472;2023-03-23T02:53:25;8.80;;;3.75;;
50769;SDS011;36740;48.698;11.472;2023-03-23T02:56:11;8.00;;;4.55;;
50769;SDS011;36740;48.698;11.472;2023-03-23T02:58:57;5.28;;;3.65;;
50769;SDS011;36740;48.698;11.472;2023-03-23T03:04:30;4.88;;;3.42;;
50769;SDS011;36740;48.698;11.472;2023-03-23T03:10:13;7.20;;;4.43;;
50769;SDS011;36740;48.698;11.472;2023-03-23T03:13:10;4.45;;;3.03;;
50769;SDS011;36740;48.698;11.472;2023-03-23T03:22:03;8.10;;;4.40;;
50769;SDS011;36740;48.698;11.472;2023-03-23T03:24:50;10.32;;;4.30;;
50769;SDS011;36740;48.698;11.472;2023-03-23T03:27:37;6.57;;;4.80;;
50769;SDS011;36740;48.698;11.472;2023-03-23T03:30:26;5.70;;;4.03;;
50769;SDS011;36740;48.698;11.472;2023-03-23T03:33:14;5.05;;;4.05;;
50769;SDS011;36740;48.698;11.472;2023-03-23T03:36:00;9.60;;;4.43;;
50769;SDS011;36740;48.698;11.472;2023-03-23T03:38:48;8.38;;;3.85;;
50769;SDS011;36740;48.698;11.472;2023-03-23T03:41:34;8.57;;;3.45;;
50769;SDS011;36740;48.698;11.472;2023-03-23T03:44:20;10.68;;;3.75;;
50769;SDS011;36740;48.698;11.472;2023-03-23T03:47:06;4.93;;;3.70;;
50769;SDS011;36740;48.698;11.472;2023-03-23T03:49:51;6.60;;;3.58;;
50769;SDS011;36740;48.698;11.472;2023-03-23T03:52:37;8.45;;;5.95;;
50769;SDS011;36740;48.698;11.472;2023-03-23T03:55:23;8.85;;;5.53;;
50769;SDS011;36740;48.698;11.472;2023-03-23T03:58:09;5.82;;;4.75;;
50769;SDS011;36740;48.698;11.472;2023-03-23T04:00:55;8.52;;;3.90;;
50769;SDS011;36740;48.698;11.472;2023-03-23T04:03:43;8.02;;;4.63;;
50769;SDS011;36740;48.698;11.472;2023-03-23T04:06:28;5.95;;;4.13;;
50769;SDS011;36740;48.698;11.472;2023-03-23T04:09:14;10.10;;;4.72;;
50769;SDS011;36740;48.698;11.472;2023-03-23T04:12:00;4.63;;;2.88;;
50769;SDS011;36740;48.698;11.472;2023-03-23T04:14:45;8.02;;;4.82;;
50769;SDS011;36740;48.698;11.472;2023-03-23T04:17:31;6.78;;;4.70;;
50769;SDS011;36740;48.698;11.472;2023-03-23T04:20:16;8.05;;;4.03;;
50769;SDS011;36740;48.698;11.472;2023-03-23T04:23:03;4.68;;;3.55;;
50769;SDS011;36740;48.698;11.472;2023-03-23T04:25:49;7.88;;;4.30;;
50769;SDS011;36740;48.698;11.472;2023-03-23T04:28:35;9.57;;;4.90;;
50769;SDS011;36740;48.698;11.472;2023-03-23T04:31:21;6.68;;;4.68;;
50769;SDS011;36740;48.698;11.472;2023-03-23T04:34:09;6.80;;;3.65;;
50769;SDS011;36740;48.698;11.472;2023-03-23T04:36:58;7.30;;;4.95;;
50769;SDS011;36740;48.698;11.472;2023-03-23T04:39:44;8.60;;;5.32;;
50769;SDS011;36740;48.698;11.472;2023-03-23T04:42:30;8.80;;;6.45;;
50769;SDS011;36740;48.698;11.472;2023-03-23T04:45:17;10.35;;;4.97;;
50769;SDS011;36740;48.698;11.472;2023-03-23T04:48:06;8.38;;;5.90;;
50769;SDS011;36740;48.698;11.472;2023-03-23T04:50:52;10.13;;;5.43;;
50769;SDS011;36740;48.698;11.472;2023-03-23T04:53:38;6.78;;;5.50;;
50769;SDS011;36740;48.698;11.472;2023-03-23T04:56:24;9.63;;;5.47;;
50769;SDS011;36740;48.698;11.472;2023-03-23T04:59:09;7.78;;;5.82;;
50769;SDS011;36740;48.698;11.472;2023-03-23T05:01:56;11.77;;;5.60;;
50769;SDS011;36740;48.698;11.472;2023-03-23T05:04:42;8.68;;;4.93;;
50769;SDS011;36740;48.698;11.472;2023-03-23T05:07:27;10.75;;;5.75;;
50769;SDS011;36740;48.698;11.472;2023-03-23T05:10:13;12.23;;;6.20;;
50769;SDS011;36740;48.698;11.472;2023-03-23T05:12:59;18.92;;;6.35;;
50769;SDS011;36740;48.698;11.472;2023-03-23T05:15:44;14.55;;;5.82;;
50769;SDS011;36740;48.698;11.472;2023-03-23T05:18:30;7.93;;;4.88;;
50769;SDS011;36740;48.698;11.472;2023-03-23T05:21:17;24.27;;;5.90;;
50769;SDS011;36740;48.698;11.472;2023-03-23T05:24:02;6.90;;;3.95;;
50769;SDS011;36740;48.698;11.472;2023-03-23T05:26:49;9.15;;;4.50;;
50769;SDS011;36740;48.698;11.472;2023-03-23T05:29:38;9.07;;;5.55;;
50769;SDS011;36740;48.698;11.472;2023-03-23T05:32:26;7.50;;;3.03;;
50769;SDS011;36740;48.698;11.472;2023-03-23T05:35:14;6.90;;;3.95;;
50769;SDS011;36740;48.698;11.472;2023-03-23T05:38:00;11.82;;;5.95;;
50769;SDS011;36740;48.698;11.472;2023-03-23T05:40:47;6.93;;;3.97;;
50769;SDS011;36740;48.698;11.472;2023-03-23T05:43:34;9.02;;;4.75;;
50769;SDS011;36740;48.698;11.472;2023-03-23T05:46:19;7.20;;;2.95;;
50769;SDS011;36740;48.698;11.472;2023-03-23T05:49:05;7.88;;;3.85;;
50769;SDS011;36740;48.698;11.472;2023-03-23T05:51:50;5.57;;;3.47;;
50769;SDS011;36740;48.698;11.472;2023-03-23T05:54:36;8.65;;;4.15;;
50769;SDS011;36740;48.698;11.472;2023-03-23T05:57:22;6.63;;;4.28;;
50769;SDS011;36740;48.698;11.472;2023-03-23T06:00:08;17.88;;;7.38;;
50769;SDS011;36740;48.698;11.472;2023-03-23T06:03:05;16.15;;;5.32;;
50769;SDS011;36740;48.698;11.472;2023-03-23T06:05:51;23.85;;;5.78;;
50769;SDS011;36740;48.698;11.472;2023-03-23T06:08:37;11.90;;;7.05;;
50769;SDS011;36740;48.698;11.472;2023-03-23T06:11:23;13.38;;;7.22;;
50769;SDS011;36740;48.698;11.472;2023-03-23T06:14:10;10.43;;;5.22;;
50769;SDS011;36740;48.698;11.472;2023-03-23T06:16:57;7.03;;;3.55;;
50769;SDS011;36740;48.698;11.472;2023-03-23T06:19:43;8.35;;;4.18;;
50769;SDS011;36740;48.698;11.472;2023-03-23T06:22:30;4.20;;;2.30;;
50769;SDS011;36740;48.698;11.472;2023-03-23T06:25:16;4.85;;;3.03;;
50769;SDS011;36740;48.698;11.472;2023-03-23T06:28:02;8.02;;;3.22;;
50769;SDS011;36740;48.698;11.472;2023-03-23T06:30:48;6.55;;;3.63;;
50769;SDS011;36740;48.698;11.472;2023-03-23T06:33:34;6.40;;;3.13;;
50769;SDS011;36740;48.698;11.472;2023-03-23T06:36:20;8.57;;;4.20;;
50769;SDS011;36740;48.698;11.472;2023-03-23T06:39:08;5.03;;;3.30;;
50769;SDS011;36740;48.698;11.472;2023-03-23T06:41:53;6.13;;;2.97;;
50769;SDS011;36740;48.698;11.472;2023-03-23T06:44:39;3.20;;;2.45;;
50769;SDS011;36740;48.698;11.472;2023-03-23T06:47:24;4.65;;;2.28;;
50769;SDS011;36740;48.698;11.472;2023-03-23T06:50:10;3.28;;;2.25;;
50769;SDS011;36740;48.698;11.472;2023-03-23T06:52:56;3.15;;;2.42;;
50769;SDS011;36740;48.698;11.472;2023-03-23T06:55:43;6.32;;;3.10;;
50769;SDS011;36740;48.698;11.472;2023-03-23T06:58:28;3.10;;;2.03;;
50769;SDS011;36740;48.698;11.472;2023-03-23T07:01:15;3.47;;;2.33;;
50769;SDS011;36740;48.698;11.472;2023-03-23T07:04:01;4.78;;;2.20;;
50769;SDS011;36740;48.698;11.472;2023-03-23T07:06:46;4.57;;;2.80;;
50769;SDS011;36740;48.698;11.472;2023-03-23T07:09:32;6.13;;;2.50;;
50769;SDS011;36740;48.698;11.472;2023-03-23T07:12:18;4.68;;;1.90;;
50769;SDS011;36740;48.698;11.472;2023-03-23T07:15:03;5.03;;;2.55;;
50769;SDS011;36740;48.698;11.472;2023-03-23T07:17:49;4.40;;;3.35;;
50769;SDS011;36740;48.698;11.472;2023-03-23T07:20:35;5.75;;;3.08;;
50769;SDS011;36740;48.698;11.472;2023-03-23T07:23:21;8.20;;;3.00;;
50769;SDS011;36740;48.698;11.472;2023-03-23T07:26:10;4.40;;;2.33;;
50769;SDS011;36740;48.698;11.472;2023-03-23T07:28:55;3.72;;;2.13;;
50769;SDS011;36740;48.698;11.472;2023-03-23T07:31:41;5.20;;;2.95;;
50769;SDS011;36740;48.698;11.472;2023-03-23T07:34:29;4.93;;;3.35;;
50769;SDS011;36740;48.698;11.472;2023-03-23T07:37:14;3.55;;;2.80;;
50769;SDS011;36740;48.698;11.472;2023-03-23T07:40:01;5.78;;;3.25;;
50769;SDS011;36740;48.698;11.472;2023-03-23T07:43:03;9.55;;;4.88;;
50769;SDS011;36740;48.698;11.472;2023-03-23T07:45:51;6.97;;;5.18;;
50769;SDS011;36740;48.698;11.472;2023-03-23T07:48:36;8.85;;;4.07;;
50769;SDS011;36740;48.698;11.472;2023-03-23T07:51:23;5.53;;;3.20;;
50769;SDS011;36740;48.698;11.472;2023-03-23T07:54:09;7.70;;;4.10;;
50769;SDS011;36740;48.698;11.472;2023-03-23T07:56:54;7.53;;;2.90;;
50769;SDS011;36740;48.698;11.472;2023-03-23T07:59:40;5.85;;;3.08;;
50769;SDS011;36740;48.698;11.472;2023-03-23T08:02:26;6.03;;;4.32;;
50769;SDS011;36740;48.698;11.472;2023-03-23T08:05:13;8.23;;;2.97;;
50769;SDS011;36740;48.698;11.472;2023-03-23T08:08:00;4.78;;;3.17;;
50769;SDS011;36740;48.698;11.472;2023-03-23T08:10:46;5.78;;;3.10;;
50769;SDS011;36740;48.698;11.472;2023-03-23T08:13:32;4.18;;;2.60;;
50769;SDS011;36740;48.698;11.472;2023-03-23T08:16:18;5.63;;;2.40;;
50769;SDS011;36740;48.698;11.472;2023-03-23T08:19:05;3.25;;;2.22;;
50769;SDS011;36740;48.698;11.472;2023-03-23T08:21:51;4.07;;;2.95;;
50769;SDS011;36740;48.698;11.472;2023-03-23T08:24:36;4.22;;;2.35;;
50769;SDS011;36740;48.698;11.472;2023-03-23T08:27:22;8.80;;;2.47;;
50769;SDS011;36740;48.698;11.472;2023-03-23T08:30:08;4.97;;;2.25;;
50769;SDS011;36740;48.698;11.472;2023-03-23T08:32:53;4.88;;;2.88;;
50769;SDS011;36740;48.698;11.472;2023-03-23T08:35:39;6.53;;;3.10;;
50769;SDS011;36740;48.698;11.472;2023-03-23T08:38:25;2.80;;;1.90;;
50769;SDS011;36740;48.698;11.472;2023-03-23T08:41:12;9.00;;;3.35;;
50769;SDS011;36740;48.698;11.472;2023-03-23T08:43:58;6.43;;;3.17;;
50769;SDS011;36740;48.698;11.472;2023-03-23T08:46:43;3.10;;;2.50;;
50769;SDS011;36740;48.698;11.472;2023-03-23T08:49:29;5.35;;;2.50;;
50769;SDS011;36740;48.698;11.472;2023-03-23T08:52:18;3.30;;;1.65;;
50769;SDS011;36740;48.698;11.472;2023-03-23T08:55:04;5.03;;;2.85;;
50769;SDS011;36740;48.698;11.472;2023-03-23T08:57:53;4.32;;;2.20;;
50769;SDS011;36740;48.698;11.472;2023-03-23T09:00:38;3.80;;;2.78;;
50769;SDS011;36740;48.698;11.472;2023-03-23T09:03:25;7.18;;;2.88;;
50769;SDS011;36740;48.698;11.472;2023-03-23T09:06:10;2.92;;;1.75;;
50769;SDS011;36740;48.698;11.472;2023-03-23T09:08:57;3.33;;;1.98;;
50769;SDS011;36740;48.698;11.472;2023-03-23T09:11:45;6.28;;;2.45;;
50769;SDS011;36740;48.698;11.472;2023-03-23T09:14:31;4.80;;;2.08;;
50769;SDS011;36740;48.698;11.472;2023-03-23T09:17:17;4.65;;;2.13;;
50769;SDS011;36740;48.698;11.472;2023-03-23T09:20:03;4.95;;;2.20;;
50769;SDS011;36740;48.698;11.472;2023-03-23T09:22:53;4.53;;;2.50;;
50769;SDS011;36740;48.698;11.472;2023-03-23T09:25:39;6.50;;;1.95;;
50769;SDS011;36740;48.698;11.472;2023-03-23T09:28:25;3.85;;;2.00;;
50769;SDS011;36740;48.698;11.472;2023-03-23T09:31:11;3.92;;;2.33;;
50769;SDS011;36740;48.698;11.472;2023-03-23T09:33:57;5.50;;;2.55;;
50769;SDS011;36740;48.698;11.472;2023-03-23T09:36:44;3.38;;;1.55;;
50769;SDS011;36740;48.698;11.472;2023-03-23T09:39:30;10.05;;;3.78;;
50769;SDS011;36740;48.698;11.472;2023-03-23T09:50:41;12.27;;;5.03;;
50769;SDS011;36740;48.698;11.472;2023-03-23T09:53:34;4.38;;;2.08;;
50769;SDS011;36740;48.698;11.472;2023-03-23T09:56:21;3.72;;;2.25;;
50769;SDS011;36740;48.698;11.472;2023-03-23T10:02:30;3.63;;;2.10;;
50769;SDS011;36740;48.698;11.472;2023-03-23T10:08:11;5.13;;;3.15;;
50769;SDS011;36740;48.698;11.472;2023-03-23T10:14:07;5.25;;;1.80;;
50769;SDS011;36740;48.698;11.472;2023-03-23T10:17:07;3.05;;;2.35;;
50769;SDS011;36740;48.698;11.472;2023-03-23T10:20:03;6.07;;;2.65;;
50769;SDS011;36740;48.698;11.472;2023-03-23T10:23:01;5.72;;;3.00;;
50769;SDS011;36740;48.698;11.472;2023-03-23T10:28:37;6.50;;;4.78;;
50769;SDS011;36740;48.698;11.472;2023-03-23T10:31:24;2.85;;;1.98;;
50769;SDS011;36740;48.698;11.472;2023-03-23T10:34:24;5.32;;;2.50;;
50769;SDS011;36740;48.698;11.472;2023-03-23T10:37:16;6.15;;;2.90;;
50769;SDS011;36740;48.698;11.472;2023-03-23T10:40:05;7.40;;;3.33;;
50769;SDS011;36740;48.698;11.472;2023-03-23T10:42:56;3.05;;;2.00;;
50769;SDS011;36740;48.698;11.472;2023-03-23T10:45:44;4.03;;;2.05;;
50769;SDS011;36740;48.698;11.472;2023-03-23T10:48:31;6.78;;;3.40;;
50769;SDS011;36740;48.698;11.472;2023-03-23T10:51:20;5.38;;;2.60;;
50769;SDS011;36740;48.698;11.472;2023-03-23T10:54:06;4.43;;;2.28;;
50769;SDS011;36740;48.698;11.472;2023-03-23T10:56:53;4.70;;;2.38;;
50769;SDS011;36740;48.698;11.472;2023-03-23T10:59:39;2.80;;;1.60;;
50769;SDS011;36740;48.698;11.472;2023-03-23T11:02:25;4.10;;;2.17;;
50769;SDS011;36740;48.698;11.472;2023-03-23T11:05:54;3.63;;;2.00;;
50769;SDS011;36740;48.698;11.472;2023-03-23T11:08:21;11.18;;;2.72;;
50769;SDS011;36740;48.698;11.472;2023-03-23T11:11:11;2.17;;;1.35;;
50769;SDS011;36740;48.698;11.472;2023-03-23T11:14:02;2.63;;;1.75;;
50769;SDS011;36740;48.698;11.472;2023-03-23T11:16:52;2.58;;;1.75;;
50769;SDS011;36740;48.698;11.472;2023-03-23T11:19:40;4.50;;;1.80;;
50769;SDS011;36740;48.698;11.472;2023-03-23T11:22:26;4.30;;;2.20;;
50769;SDS011;36740;48.698;11.472;2023-03-23T11:25:13;2.00;;;1.42;;
50769;SDS011;36740;48.698;11.472;2023-03-23T11:27:58;1.48;;;1.38;;
50769;SDS011;36740;48.698;11.472;2023-03-23T11:30:45;1.65;;;1.25;;
50769;SDS011;36740;48.698;11.472;2023-03-23T11:36:35;3.03;;;2.10;;
50769;SDS011;36740;48.698;11.472;2023-03-23T11:42:16;3.88;;;2.25;;
50769;SDS011;36740;48.698;11.472;2023-03-23T11:56:57;4.22;;;1.85;;
50769;SDS011;36740;48.698;11.472;2023-03-23T11:59:43;3.83;;;2.40;;
50769;SDS011;36740;48.698;11.472;2023-03-23T12:02:35;4.53;;;1.73;;
50769;SDS011;36740;48.698;11.472;2023-03-23T12:05:56;3.03;;;1.88;;
50769;SDS011;36740;48.698;11.472;2023-03-23T12:11:45;2.63;;;1.92;;
50769;SDS011;36740;48.698;11.472;2023-03-23T12:20:21;1.95;;;1.45;;
50769;SDS011;36740;48.698;11.472;2023-03-23T12:26:47;2.55;;;1.67;;
50769;SDS011;36740;48.698;11.472;2023-03-23T12:34:50;2.78;;;1.65;;
50769;SDS011;36740;48.698;11.472;2023-03-23T12:37:41;2.83;;;1.23;;
50769;SDS011;36740;48.698;11.472;2023-03-23T12:46:49;2.63;;;1.35;;
50769;SDS011;36740;48.698;11.472;2023-03-23T12:49:39;1.73;;;1.45;;
50769;SDS011;36740;48.698;11.472;2023-03-23T12:52:35;5.85;;;1.75;;
50769;SDS011;36740;48.698;11.472;2023-03-23T12:58:29;3.40;;;1.75;;
50769;SDS011;36740;48.698;11.472;2023-03-23T13:01:22;1.67;;;1.58;;
50769;SDS011;36740;48.698;11.472;2023-03-23T13:06:57;3.50;;;1.73;;
50769;SDS011;36740;48.698;11.472;2023-03-23T13:09:58;3.78;;;2.10;;
50769;SDS011;36740;48.698;11.472;2023-03-23T13:12:46;6.30;;;3.65;;
50769;SDS011;36740;48.698;11.472;2023-03-23T13:18:23;6.80;;;2.63;;
50769;SDS011;36740;48.698;11.472;2023-03-23T13:21:18;2.20;;;1.80;;
50769;SDS011;36740;48.698;11.472;2023-03-23T13:24:06;3.35;;;2.00;;
50769;SDS011;36740;48.698;11.472;2023-03-23T13:26:53;6.20;;;1.70;;
50769;SDS011;36740;48.698;11.472;2023-03-23T13:29:43;2.70;;;2.50;;
50769;SDS011;36740;48.698;11.472;2023-03-23T13:32:37;3.88;;;3.13;;
50769;SDS011;36740;48.698;11.472;2023-03-23T13:35:24;2.80;;;1.70;;
50769;SDS011;36740;48.698;11.472;2023-03-23T13:38:27;6.07;;;2.17;;
50769;SDS011;36740;48.698;11.472;2023-03-23T13:41:14;4.05;;;1.77;;
50769;SDS011;36740;48.698;11.472;2023-03-23T13:44:05;3.50;;;2.15;;
50769;SDS011;36740;48.698;11.472;2023-03-23T13:46:55;2.67;;;1.88;;
50769;SDS011;36740;48.698;11.472;2023-03-23T13:53:00;4.22;;;2.80;;
50769;SDS011;36740;48.698;11.472;2023-03-23T13:58:31;2.13;;;1.92;;
50769;SDS011;36740;48.698;11.472;2023-03-23T14:01:31;5.03;;;2.38;;
50769;SDS011;36740;48.698;11.472;2023-03-23T14:04:18;4.97;;;2.33;;
50769;SDS011;36740;48.698;11.472;2023-03-23T14:07:10;3.17;;;2.40;;
50769;SDS011;36740;48.698;11.472;2023-03-23T14:10:04;6.43;;;1.48;;
50769;SDS011;36740;48.698;11.472;2023-03-23T14:12:52;4.40;;;2.15;;
50769;SDS011;36740;48.698;11.472;2023-03-23T14:15:45;3.70;;;2.20;;
50769;SDS011;36740;48.698;11.472;2023-03-23T14:18:39;5.20;;;1.95;;
50769;SDS011;36740;48.698;11.472;2023-03-23T14:21:31;3.25;;;1.95;;
50769;SDS011;36740;48.698;11.472;2023-03-23T14:24:19;2.75;;;2.25;;
50769;SDS011;36740;48.698;11.472;2023-03-23T14:29:57;3.22;;;1.65;;
50769;SDS011;36740;48.698;11.472;2023-03-23T14:32:43;4.57;;;2.60;;
50769;SDS011;36740;48.698;11.472;2023-03-23T14:35:35;3.22;;;2.10;;
50769;SDS011;36740;48.698;11.472;2023-03-23T14:38:22;4.63;;;2.15;;
50769;SDS011;36740;48.698;11.472;2023-03-23T14:41:16;4.45;;;2.30;;
50769;SDS011;36740;48.698;11.472;2023-03-23T14:44:02;5.25;;;2.05;;
50769;SDS011;36740;48.698;11.472;2023-03-23T14:46:49;10.30;;;3.75;;
50769;SDS011;36740;48.698;11.472;2023-03-23T14:49:36;2.80;;;1.55;;
50769;SDS011;36740;48.698;11.472;2023-03-23T14:52:26;4.53;;;2.95;;
50769;SDS011;36740;48.698;11.472;2023-03-23T14:55:14;3.65;;;2.97;;
50769;SDS011;36740;48.698;11.472;2023-03-23T14:58:07;4.75;;;2.67;;
50769;SDS011;36740;48.698;11.472;2023-03-23T15:01:01;4.82;;;2.38;;
50769;SDS011;36740;48.698;11.472;2023-03-23T15:03:52;4.80;;;2.00;;
50769;SDS011;36740;48.698;11.472;2023-03-23T15:09:24;3.95;;;2.47;;
50769;SDS011;36740;48.698;11.472;2023-03-23T15:12:16;2.97;;;2.00;;
50769;SDS011;36740;48.698;11.472;2023-03-23T15:15:05;4.97;;;3.25;;
50769;SDS011;36740;48.698;11.472;2023-03-23T15:17:53;4.32;;;2.40;;
50769;SDS011;36740;48.698;11.472;2023-03-23T15:20:46;1.77;;;1.45;;
50769;SDS011;36740;48.698;11.472;2023-03-23T15:23:31;3.00;;;1.98;;
50769;SDS011;36740;48.698;11.472;2023-03-23T15:26:28;2.13;;;1.60;;
50769;SDS011;36740;48.698;11.472;2023-03-23T15:29:15;2.80;;;2.35;;
50769;SDS011;36740;48.698;11.472;2023-03-23T15:32:01;2.33;;;1.95;;
50769;SDS011;36740;48.698;11.472;2023-03-23T15:34:48;1.45;;;1.27;;
50769;SDS011;36740;48.698;11.472;2023-03-23T15:37:34;1.77;;;1.65;;
50769;SDS011;36740;48.698;11.472;2023-03-23T15:40:24;1.75;;;1.38;;
50769;SDS011;36740;48.698;11.472;2023-03-23T15:43:20;5.72;;;2.30;;
50769;SDS011;36740;48.698;11.472;2023-03-23T15:51:45;3.83;;;1.90;;
50769;SDS011;36740;48.698;11.472;2023-03-23T15:54:31;2.80;;;1.67;;
50769;SDS011;36740;48.698;11.472;2023-03-23T15:57:17;4.30;;;2.42;;
50769;SDS011;36740;48.698;11.472;2023-03-23T16:00:03;2.53;;;1.95;;
50769;SDS011;36740;48.698;11.472;2023-03-23T16:02:56;4.22;;;2.65;;
50769;SDS011;36740;48.698;11.472;2023-03-23T16:05:43;2.67;;;1.75;;
50769;SDS011;36740;48.698;11.472;2023-03-23T16:08:30;5.35;;;2.30;;
50769;SDS011;36740;48.698;11.472;2023-03-23T16:11:17;3.78;;;1.52;;
50769;SDS011;36740;48.698;11.472;2023-03-23T16:14:03;4.68;;;1.73;;
50769;SDS011;36740;48.698;11.472;2023-03-23T16:16:49;5.25;;;2.72;;
50769;SDS011;36740;48.698;11.472;2023-03-23T16:19:38;2.83;;;2.22;;
50769;SDS011;36740;48.698;11.472;2023-03-23T16:22:23;4.70;;;2.63;;
50769;SDS011;36740;48.698;11.472;2023-03-23T16:25:09;3.13;;;2.60;;
50769;SDS011;36740;48.698;11.472;2023-03-23T16:27:55;3.25;;;2.35;;
50769;SDS011;36740;48.698;11.472;2023-03-23T16:30:41;4.60;;;2.38;;
50769;SDS011;36740;48.698;11.472;2023-03-23T16:33:28;3.88;;;2.10;;
50769;SDS011;36740;48.698;11.472;2023-03-23T16:36:13;2.72;;;1.83;;
50769;SDS011;36740;48.698;11.472;2023-03-23T16:38:59;2.95;;;1.83;;
50769;SDS011;36740;48.698;11.472;2023-03-23T16:41:45;3.17;;;1.92;;
50769;SDS011;36740;48.698;11.472;2023-03-23T16:44:30;4.40;;;2.42;;
50769;SDS011;36740;48.698;11.472;2023-03-23T16:47:16;6.53;;;3.22;;
50769;SDS011;36740;48.698;11.472;2023-03-23T16:50:03;4.60;;;2.80;;
50769;SDS011;36740;48.698;11.472;2023-03-23T16:52:51;7.47;;;2.42;;
50769;SDS011;36740;48.698;11.472;2023-03-23T16:55:37;6.60;;;3.25;;
50769;SDS011;36740;48.698;11.472;2023-03-23T16:58:23;4.53;;;2.40;;
50769;SDS011;36740;48.698;11.472;2023-03-23T17:01:09;2.17;;;1.90;;
50769;SDS011;36740;48.698;11.472;2023-03-23T17:03:54;3.78;;;2.60;;
50769;SDS011;36740;48.698;11.472;2023-03-23T17:06:40;5.18;;;3.13;;
50769;SDS011;36740;48.698;11.472;2023-03-23T17:09:27;2.20;;;2.00;;
50769;SDS011;36740;48.698;11.472;2023-03-23T17:12:12;3.47;;;2.63;;
50769;SDS011;36740;48.698;11.472;2023-03-23T17:14:58;6.18;;;2.38;;
50769;SDS011;36740;48.698;11.472;2023-03-23T17:17:44;3.80;;;2.20;;
50769;SDS011;36740;48.698;11.472;2023-03-23T17:20:29;7.90;;;2.45;;
50769;SDS011;36740;48.698;11.472;2023-03-23T17:23:15;6.47;;;4.38;;
50769;SDS011;36740;48.698;11.472;2023-03-23T17:26:01;3.83;;;1.92;;
50769;SDS011;36740;48.698;11.472;2023-03-23T17:28:48;4.47;;;2.47;;
50769;SDS011;36740;48.698;11.472;2023-03-23T17:31:34;4.97;;;2.72;;
50769;SDS011;36740;48.698;11.472;2023-03-23T17:34:19;3.35;;;1.95;;
50769;SDS011;36740;48.698;11.472;2023-03-23T17:37:05;4.68;;;1.90;;
50769;SDS011;36740;48.698;11.472;2023-03-23T17:39:51;2.10;;;1.63;;
50769;SDS011;36740;48.698;11.472;2023-03-23T17:42:37;8.57;;;2.65;;
50769;SDS011;36740;48.698;11.472;2023-03-23T17:45:22;3.45;;;2.47;;
50769;SDS011;36740;48.698;11.472;2023-03-23T17:48:08;2.97;;;1.75;;
50769;SDS011;36740;48.698;11.472;2023-03-23T17:50:54;4.28;;;2.55;;
50769;SDS011;36740;48.698;11.472;2023-03-23T17:53:42;1.80;;;1.33;;
50769;SDS011;36740;48.698;11.472;2023-03-23T17:56:27;3.35;;;2.30;;
50769;SDS011;36740;48.698;11.472;2023-03-23T17:59:13;3.60;;;2.80;;
50769;SDS011;36740;48.698;11.472;2023-03-23T18:02:02;4.10;;;2.17;;
50769;SDS011;36740;48.698;11.472;2023-03-23T18:07:22;6.15;;;3.08;;
50769;SDS011;36740;48.698;11.472;2023-03-23T18:10:47;3.17;;;1.90;;
50769;SDS011;36740;48.698;11.472;2023-03-23T18:14:15;4.85;;;2.75;;
50769;SDS011;36740;48.698;11.472;2023-03-23T18:17:06;3.40;;;2.50;;
50769;SDS011;36740;48.698;11.472;2023-03-23T18:19:52;3.17;;;2.50;;
50769;SDS011;36740;48.698;11.472;2023-03-23T18:25:59;4.68;;;2.75;;
50769;SDS011;36740;48.698;11.472;2023-03-23T18:28:44;5.15;;;2.47;;
50769;SDS011;36740;48.698;11.472;2023-03-23T18:31:30;3.15;;;1.80;;
50769;SDS011;36740;48.698;11.472;2023-03-23T18:34:18;2.85;;;2.20;;
50769;SDS011;36740;48.698;11.472;2023-03-23T18:37:04;3.15;;;2.20;;
50769;SDS011;36740;48.698;11.472;2023-03-23T18:39:49;3.65;;;3.00;;